createdAt,value
2022-12-27T00:00:53.630Z,1.00
2022-12-27T00:05:56.459Z,1.40
2022-12-27T00:11:05.674Z,1.00
2022-12-27T00:16:11.531Z,2.00
2022-12-27T00:21:14.636Z,1.00
2022-12-27T00:26:20.778Z,1.20
2022-12-27T00:31:23.760Z,1.00
2022-12-27T00:36:27.573Z,2.00
2022-12-27T00:41:32.483Z,1.00
2022-12-27T00:46:35.298Z,1.00
2022-12-27T00:51:38.123Z,1.00
2022-12-27T00:56:42.421Z,2.00
2022-12-27T01:01:45.406Z,1.40
2022-12-27T01:06:48.321Z,1.40
2022-12-27T01:11:52.473Z,2.00
2022-12-27T01:16:55.325Z,0.80
2022-12-27T01:21:59.768Z,0.00
2022-12-27T01:27:03.933Z,0.80
2022-12-27T01:32:06.888Z,1.00
2022-12-27T01:37:09.655Z,1.00
2022-12-27T01:42:34.241Z,1.00
2022-12-27T01:47:43.759Z,0.80
2022-12-27T01:52:49.178Z,1.00
2022-12-27T01:57:54.182Z,1.00
2022-12-27T02:02:57.296Z,1.00
2022-12-27T02:08:05.941Z,2.80
2022-12-27T02:13:10.123Z,1.00
2022-12-27T02:18:12.927Z,1.00
2022-12-27T02:23:54.412Z,2.00
2022-12-27T02:29:07.063Z,0.80
2022-12-27T02:34:14.686Z,1.80
2022-12-27T02:39:17.436Z,1.00
2022-12-27T02:44:39.586Z,1.00
2022-12-27T02:50:01.098Z,0.40
2022-12-27T02:55:22.818Z,1.00
2022-12-27T03:00:44.348Z,1.00
2022-12-27T03:06:16.200Z,1.00
2022-12-27T03:11:36.520Z,1.80
2022-12-27T03:16:43.099Z,0.20
2022-12-27T03:22:04.416Z,1.80
2022-12-27T03:27:10.300Z,1.00
2022-12-27T03:32:31.940Z,0.60
2022-12-27T03:37:54.551Z,0.00
2022-12-27T03:43:14.621Z,1.00
2022-12-27T03:48:21.049Z,1.00
2022-12-27T03:53:25.097Z,0.60
2022-12-27T03:58:27.879Z,1.60
2022-12-27T04:03:32.138Z,0.40
2022-12-27T04:08:52.656Z,0.00
2022-12-27T04:14:12.899Z,1.60
2022-12-27T04:19:34.772Z,1.00
2022-12-27T04:24:55.211Z,1.00
2022-12-27T04:30:15.401Z,1.00
2022-12-27T04:35:19.616Z,1.00
2022-12-27T04:40:40.066Z,0.00
2022-12-27T04:46:00.386Z,0.80
2022-12-27T04:51:22.082Z,0.60
2022-12-27T04:56:24.865Z,0.60
2022-12-27T05:01:45.298Z,1.60
2022-12-27T05:06:49.562Z,1.00
2022-12-27T05:12:10.080Z,0.00
2022-12-27T05:17:13.051Z,0.60
2022-12-27T05:22:34.517Z,1.00
2022-12-27T05:27:37.288Z,1.00
2022-12-27T05:32:40.085Z,1.00
2022-12-27T05:37:44.639Z,0.40
2022-12-27T05:42:49.443Z,0.60
2022-12-27T05:47:53.059Z,0.20
2022-12-27T05:52:58.033Z,0.00
2022-12-27T05:58:00.821Z,0.20
2022-12-27T06:03:04.079Z,0.80
2022-12-27T06:08:08.868Z,0.00
2022-12-27T06:13:11.866Z,0.60
2022-12-27T06:18:14.765Z,0.00
2022-12-27T06:23:18.981Z,0.60
2022-12-27T06:28:21.706Z,0.20
2022-12-27T06:33:24.668Z,0.80
2022-12-27T06:38:28.840Z,0.00
2022-12-27T06:43:31.666Z,0.00
2022-12-27T06:48:34.444Z,1.00
2022-12-27T06:53:38.679Z,0.20
2022-12-27T06:58:41.455Z,0.60
2022-12-27T07:03:44.264Z,0.00
2022-12-27T07:08:48.716Z,0.00
2022-12-27T07:13:52.366Z,0.60
2022-12-27T07:18:55.857Z,0.80
2022-12-27T07:24:00.150Z,0.60
2022-12-27T07:29:03.026Z,0.00
2022-12-27T07:34:06.044Z,1.00
2022-12-27T07:39:10.313Z,0.00
2022-12-27T07:44:13.296Z,0.60
2022-12-27T07:49:18.000Z,0.40
2022-12-27T07:54:22.750Z,0.00
2022-12-27T07:59:27.688Z,0.60
2022-12-27T08:04:30.693Z,3.00
2022-12-27T08:09:36.450Z,2.00
2022-12-27T08:14:40.961Z,1.80
2022-12-27T08:19:43.803Z,1.20
2022-12-27T08:24:48.678Z,2.00
2022-12-27T08:29:51.504Z,2.60
2022-12-27T08:34:54.407Z,2.00
2022-12-27T08:40:02.663Z,2.60
2022-12-27T08:45:07.002Z,2.00
2022-12-27T08:50:10.334Z,1.80
2022-12-27T08:55:14.528Z,2.00
2022-12-27T09:00:18.281Z,1.80
2022-12-27T09:05:22.231Z,2.00
2022-12-27T09:10:26.419Z,1.20
2022-12-27T09:15:29.313Z,2.00
2022-12-27T09:20:32.613Z,3.00
2022-12-27T09:25:36.917Z,2.40
2022-12-27T09:30:39.706Z,1.00
2022-12-27T09:35:42.701Z,1.20
2022-12-27T09:40:54.305Z,2.20
2022-12-27T09:45:57.491Z,2.00
2022-12-27T09:51:01.180Z,1.00
2022-12-27T09:56:05.693Z,0.60
2022-12-27T10:01:18.433Z,1.40
2022-12-27T10:06:56.776Z,1.20
2022-12-27T10:12:04.165Z,2.00
2022-12-27T10:17:09.804Z,1.40
2022-12-27T10:22:17.460Z,2.00
2022-12-27T10:27:22.881Z,2.00
2022-12-27T10:32:25.691Z,1.80
2022-12-27T10:37:28.610Z,1.20
2022-12-27T10:42:35.414Z,1.00
2022-12-27T10:47:38.172Z,1.00
2022-12-27T10:52:41.310Z,1.00
2022-12-27T10:57:46.759Z,1.00
2022-12-27T11:02:53.871Z,2.00
2022-12-27T11:07:56.723Z,1.00
2022-12-27T11:13:02.784Z,1.00
2022-12-27T11:18:11.215Z,1.00
2022-12-27T11:23:15.732Z,2.00
2022-12-27T11:28:23.679Z,1.20
2022-12-27T11:33:30.119Z,1.40
2022-12-27T11:38:34.958Z,1.00
2022-12-27T11:43:41.178Z,1.40
2022-12-27T11:48:45.287Z,1.00
2022-12-27T11:54:08.678Z,1.00
2022-12-27T11:59:37.821Z,3.00
2022-12-27T12:05:02.901Z,4.20
2022-12-27T12:10:16.431Z,2.00
2022-12-27T12:15:49.554Z,5.40
2022-12-27T12:21:07.515Z,1.00
2022-12-27T12:26:13.745Z,5.20
2022-12-27T12:31:26.566Z,2.00
2022-12-27T12:36:37.889Z,2.20
2022-12-27T12:41:53.920Z,2.40
2022-12-27T12:47:02.514Z,2.60
2022-12-27T12:52:15.074Z,5.20
2022-12-27T12:57:25.886Z,1.00
2022-12-27T13:02:49.652Z,2.40
2022-12-27T13:08:00.323Z,2.00
2022-12-27T13:13:06.273Z,2.00
2022-12-27T13:18:17.471Z,2.00
2022-12-27T13:23:27.790Z,1.80
2022-12-27T13:28:36.615Z,2.00
2022-12-27T13:33:47.143Z,1.80
2022-12-27T13:39:08.636Z,3.00
2022-12-27T13:44:46.250Z,2.00
2022-12-27T13:50:18.161Z,2.00
2022-12-27T13:55:43.222Z,2.00
2022-12-27T14:00:47.641Z,2.60
2022-12-27T14:06:21.224Z,2.00
2022-12-27T14:11:32.458Z,1.20
2022-12-27T14:16:40.027Z,1.40
2022-12-27T14:21:57.133Z,2.80
2022-12-27T14:27:30.612Z,2.00
2022-12-27T14:32:48.563Z,2.20
2022-12-27T14:38:33.351Z,2.00
2022-12-27T14:44:02.966Z,1.60
2022-12-27T14:49:12.580Z,2.00
2022-12-27T14:54:44.683Z,2.40
2022-12-27T14:59:52.787Z,1.80
2022-12-27T15:05:19.270Z,3.40
2022-12-27T15:10:27.195Z,3.60
2022-12-27T15:15:50.307Z,1.60
2022-12-27T15:21:13.285Z,1.80
2022-12-27T15:26:19.094Z,2.20
2022-12-27T15:31:28.191Z,2.00
2022-12-27T15:36:38.518Z,2.60
2022-12-27T15:41:55.526Z,2.60
2022-12-27T15:47:19.906Z,1.40
2022-12-27T15:52:26.041Z,2.00
2022-12-27T15:57:49.459Z,2.00
2022-12-27T16:02:54.977Z,1.80
2022-12-27T16:08:19.703Z,2.40
2022-12-27T16:13:36.001Z,2.00
2022-12-27T16:18:51.057Z,2.00
2022-12-27T16:23:55.738Z,1.80
2022-12-27T16:29:00.183Z,3.20
2022-12-27T16:34:13.516Z,1.60
2022-12-27T16:39:54.742Z,2.00
2022-12-27T16:45:02.815Z,1.00
2022-12-27T16:50:20.701Z,1.80
2022-12-27T16:55:30.747Z,1.40
2022-12-27T17:00:38.905Z,1.00
2022-12-27T17:05:58.670Z,1.00
2022-12-27T17:11:25.550Z,2.00
2022-12-27T17:16:29.217Z,2.00
2022-12-27T17:21:34.764Z,1.80
2022-12-27T17:27:04.722Z,2.00
2022-12-27T17:32:10.853Z,3.60
2022-12-27T17:37:17.000Z,9.60
2022-12-27T17:42:40.754Z,5.60
2022-12-27T17:48:02.089Z,11.40
2022-12-27T17:53:34.176Z,6.60
2022-12-27T17:58:36.950Z,17.40
2022-12-27T18:03:42.343Z,104.25
2022-12-27T18:08:47.940Z,63.33
2022-12-27T18:13:51.377Z,65.33
2022-12-27T18:18:54.555Z,71.67
2022-12-27T18:23:58.845Z,82.00
2022-12-27T18:29:01.979Z,83.00
2022-12-27T18:34:07.001Z,74.00
2022-12-27T18:39:17.978Z,75.00
2022-12-27T18:44:26.786Z,75.00
2022-12-27T18:49:32.374Z,56.75
2022-12-27T18:54:36.683Z,54.00
2022-12-27T18:59:39.519Z,56.75
2022-12-27T19:04:42.310Z,50.25
2022-12-27T19:09:52.048Z,50.25
2022-12-27T19:14:55.004Z,49.00
2022-12-27T19:19:59.132Z,42.00
2022-12-27T19:25:04.786Z,45.75
2022-12-27T19:30:31.811Z,38.75
2022-12-27T19:35:35.037Z,35.00
2022-12-27T19:40:40.231Z,32.40
2022-12-27T19:45:43.066Z,32.75
2022-12-27T19:50:47.640Z,32.20
2022-12-27T19:55:51.807Z,31.00
2022-12-27T20:00:54.905Z,26.60
2022-12-27T20:06:14.730Z,27.60
2022-12-27T20:11:23.382Z,23.40
2022-12-27T20:16:26.588Z,19.00
2022-12-27T20:21:29.884Z,22.20
2022-12-27T20:26:34.044Z,16.40
2022-12-27T20:31:44.205Z,20.80
2022-12-27T20:36:47.552Z,20.40
2022-12-27T20:41:51.706Z,17.00
2022-12-27T20:46:54.693Z,17.20
2022-12-27T20:51:57.592Z,17.00
2022-12-27T20:57:01.926Z,16.00
2022-12-27T21:02:04.945Z,14.80
2022-12-27T21:07:08.552Z,13.80
2022-12-27T21:12:12.813Z,13.80
2022-12-27T21:17:15.711Z,14.60
2022-12-27T21:22:18.662Z,18.60
2022-12-27T21:27:22.835Z,11.60
2022-12-27T21:32:26.172Z,15.00
2022-12-27T21:37:29.000Z,15.00
2022-12-27T21:42:33.299Z,11.80
2022-12-27T21:47:36.071Z,13.60
2022-12-27T21:52:39.021Z,12.00
2022-12-27T21:57:43.263Z,10.20
2022-12-27T22:02:46.277Z,9.60
2022-12-27T22:07:49.210Z,10.00
2022-12-27T22:12:53.334Z,8.00
2022-12-27T22:17:56.110Z,10.40
2022-12-27T22:22:58.902Z,10.00
2022-12-27T22:28:03.083Z,8.40
2022-12-27T22:33:06.294Z,10.80
2022-12-27T22:38:09.187Z,10.20
2022-12-27T22:43:13.345Z,7.80
2022-12-27T22:48:16.313Z,7.40
2022-12-27T22:53:19.206Z,8.80
2022-12-27T22:58:23.410Z,9.40
2022-12-27T23:03:26.710Z,11.20
2022-12-27T23:08:29.781Z,6.20
2022-12-27T23:13:34.522Z,6.80
2022-12-27T23:18:39.375Z,11.80
2022-12-27T23:23:42.143Z,9.60
2022-12-27T23:28:46.753Z,8.20
2022-12-27T23:33:49.763Z,7.00
2022-12-27T23:38:52.550Z,6.00
2022-12-27T23:43:56.665Z,5.60
2022-12-27T23:49:00.715Z,9.60
2022-12-27T23:54:03.528Z,5.00
2022-12-27T23:59:07.746Z,7.80
